General Rodolfo Sanchez Taboada International Airport
MMML : now visible

Airfield :











YOU CAN JOIN US ON...

 
LOGIN :

Register | Disclaimer

   EN    FR    IT 

 









Legend :    VFR   Marginal VFR   IFR   Intensive IFR   Very Intensive IFR
Visi :
Ceiling :
>= 8 km
>= 3000ft
5 to 8 km
1000 to 3000 ft
1500m to 5 km
500 to 1000 ft
800 to 1500m
200 to 500 ft
< 800m
< 200 ft
Symbols :   Thunderstorms  Fog  Heavy snow  Heavy precipitations  Wind > 20 kt






- Airport Elevation : 74 ft
- IATA code : MXL


MMML - General Rodolfo Sanchez Taboada International

CURRENT METAR :
  • 090745Z 00000KT 10SM SCT200 30/18 A2984 RMK 8/003

EXPIRED METARs :
  • 090646Z 00000KT 10SM FEW100 SCT200 30/19 A2984 RMK 8/023
  • 090547Z 10003KT 10SM SCT100 BKN200 31/18 A2985 RMK SLP108 52003 953 8/023

TAF TAF MMML
Valid from the 09 at 06:00 until the 10 at 06:00 UTC


090446Z 0906/1006 10005KT P6SM SCT040 BKN250
FM091800 15012KT P6SM SCT030 BKN100 BKN250
PROB40 0922/1002 6SM -RA BKN030CB
FM100500 15005KT P6SM SCT030 SCT250
MMFR FIR / North America



MET'MAP, your aeronautical weather chart ! - Copyright ORBIFLY December 2007 - Disclaimer

ORBIFLY MET'MAP TEAM :

Programming & Development : Alexandra Zaïnal
Original concept : Baudouin d'Aumeries
Technical & hardware support : Manuel Goepfert
Assistance : Marc-Olivier Méhu




SOURCES & CREDITS :

   NOAA       Earth
Advisory